Time;durP1;ratioP1;P1;durP2;ratioP2;P2;SDS_P1;SDS_P2;PMS_P1;PMS_P2;Temp;Humidity;BMP_temperature;BMP_pressure;BME280_temperature;BME280_humidity;BME280_pressure;Samples;Min_cycle;Max_cycle;Signal;HPM_P1;HPM_P2
2021/12/05 00:24:10;;;;;;;7.22;5.28;;;;;;;3.84;87.78;98315.97;5022291;28;20024;-71
2021/12/05 00:26:36;;;;;;;8.27;4.97;;;;;;;3.86;87.75;98306.34;5030591;28;20037;-72
2021/12/05 00:29:20;;;;;;;;;;;;;;;;;;;;;
2021/12/05 00:31:52;;;;;;;6.07;4.28;;;;;;;3.80;88.19;98312.75;5031479;28;20592;-73
2021/12/05 00:34:53;;;;;;;9.85;5.28;;;;;;;3.81;88.31;98308.41;5029230;28;20053;-71
2021/12/05 00:48:01;;;;;;;11.45;7.50;;;;;;;3.66;89.44;98312.09;5029097;28;20080;-72
2021/12/05 00:53:48;;;;;;;8.85;6.72;;;;;;;3.66;88.92;98332.81;5025574;28;20040;-69
2021/12/05 01:01:22;;;;;;;7.30;4.32;;;;;;;3.78;88.87;98373.41;5020515;28;20184;-72
2021/12/05 01:09:33;;;;;;;6.30;4.03;;;;;;;3.83;88.47;98381.72;5029694;28;20020;-73
2021/12/05 01:12:12;;;;;;;6.72;4.43;;;;;;;3.83;88.26;98384.31;5022135;28;20426;-69
2021/12/05 01:17:28;;;;;;;6.22;4.22;;;;;;;3.86;88.61;98400.47;5029018;28;20136;-71
2021/12/05 01:19:55;;;;;;;7.15;4.53;;;;;;;3.88;88.31;98408.13;5027941;28;20120;-72
2021/12/05 01:22:21;;;;;;;6.20;3.95;;;;;;;3.89;88.38;98407.19;5029180;28;20029;-73
2021/12/05 01:25:01;;;;;;;6.50;3.95;;;;;;;3.90;88.56;98416.66;5026201;28;20038;-72
2021/12/05 01:27:49;;;;;;;6.45;4.22;;;;;;;3.92;88.48;98419.94;5027803;28;20021;-73
2021/12/05 01:30:40;;;;;;;5.35;3.75;;;;;;;3.93;88.24;98425.94;5024609;28;20501;-72
2021/12/05 01:41:03;;;;;;;6.82;4.93;;;;;;;4.03;87.98;98421.78;5027750;28;20041;-73
2021/12/05 01:54:41;;;;;;;7.32;4.40;;;;;;;4.12;87.61;98442.72;5025261;28;20075;-72
2021/12/05 02:32:24;;;;;;;7.55;3.97;;;;;;;4.34;85.80;98493.94;5036584;28;20505;-72
2021/12/05 02:40:21;;;;;;;6.78;3.83;;;;;;;4.35;85.30;98502.53;5039098;28;20061;-72
2021/12/05 02:43:55;;;;;;;6.03;3.85;;;;;;;4.41;85.39;98507.28;5040824;28;20503;-71
2021/12/05 02:45:47;;;;;;;6.00;3.55;;;;;;;4.41;85.49;98522.03;5031232;28;20117;-70
2021/12/05 02:48:15;;;;;;;7.07;4.10;;;;;;;4.41;85.68;98528.03;5033154;28;20096;-71
2021/12/05 02:50:42;;;;;;;7.43;4.10;;;;;;;4.42;85.25;98529.72;5033136;28;20034;-72
2021/12/05 02:53:31;;;;;;;7.63;3.35;;;;;;;4.42;85.27;98519.34;5031328;28;20391;-72
2021/12/05 02:55:56;;;;;;;9.85;4.20;;;;;;;4.43;84.87;98520.16;5038902;28;20033;-72
2021/12/05 02:58:29;;;;;;;9.50;3.83;;;;;;;4.43;84.75;98514.97;5041763;28;20075;-73
2021/12/05 03:03:29;;;;;;;6.80;3.65;;;;;;;4.48;84.07;98525.84;5032860;28;20053;-72
2021/12/05 03:06:01;;;;;;;;;;;;;;;4.49;83.94;98524.94;5031611;28;20216;-71
2021/12/05 03:08:27;;;;;;;7.25;2.90;;;;;;;4.47;84.02;98534.56;5027081;28;19936;-72
2021/12/05 03:10:54;;;;;;;5.75;2.90;;;;;;;4.47;83.82;98531.97;5033031;28;20497;-72
2021/12/05 03:13:20;;;;;;;6.13;2.95;;;;;;;4.50;82.75;98547.34;5032148;28;20026;-72
2021/12/05 03:15:45;;;;;;;7.97;3.28;;;;;;;4.49;83.05;98549.09;5033073;28;20064;-72
2021/12/05 03:18:10;;;;;;;7.55;2.92;;;;;;;4.49;82.85;98550.88;5030706;28;20437;-73
2021/12/05 03:20:36;;;;;;;4.55;2.10;;;;;;;4.46;82.81;98538.94;5031049;28;20029;-73
2021/12/05 03:23:02;;;;;;;7.65;2.60;;;;;;;4.50;82.86;98547.34;5027526;28;20403;-73
2021/12/05 03:25:28;;;;;;;8.13;2.50;;;;;;;4.49;82.21;98553.47;5036783;28;20051;-73
2021/12/05 03:27:53;;;;;;;13.73;3.25;;;;;;;4.49;82.38;98551.69;5035986;28;20442;-72
2021/12/05 03:30:22;;;;;;;9.60;2.72;;;;;;;4.49;81.97;98563.84;5028411;28;20048;-72
2021/12/05 03:32:50;;;;;;;9.85;3.15;;;;;;;4.48;81.95;98557.81;5032516;28;20045;-72
2021/12/05 03:35:18;;;;;;;10.63;3.17;;;;;;;4.49;81.61;98575.06;5034537;28;20068;-72
2021/12/05 03:37:43;;;;;;;5.97;2.58;;;;;;;4.48;81.42;98570.78;5041873;28;20044;-73
2021/12/05 03:40:09;;;;;;;10.35;2.65;;;;;;;4.47;81.32;98566.53;5032440;28;20025;-72
2021/12/05 03:42:36;;;;;;;7.60;2.95;;;;;;;4.49;81.50;98576.81;5033849;28;20437;-72
2021/12/05 03:45:05;;;;;;;10.98;2.88;;;;;;;4.47;80.80;98568.31;5030011;28;20100;-72
2021/12/05 03:47:31;;;;;;;6.63;2.45;;;;;;;4.47;81.02;98578.69;5033773;28;20033;-72
2021/12/05 03:49:56;;;;;;;9.15;2.67;;;;;;;4.48;81.28;98577.75;5038845;28;20498;-72
2021/12/05 03:52:22;;;;;;;11.07;3.65;;;;;;;4.46;80.49;98575.28;5033696;28;20025;-72
2021/12/05 03:54:47;;;;;;;9.30;3.08;;;;;;;4.46;80.16;98575.28;5036586;28;20033;-72
2021/12/05 03:57:13;;;;;;;8.73;3.03;;;;;;;4.45;80.71;98571.03;5038154;28;20025;-71
2021/12/05 03:59:39;;;;;;;10.65;2.95;;;;;;;4.43;80.38;98567.69;5039167;28;20026;-71
2021/12/05 04:02:06;;;;;;;9.85;2.97;;;;;;;4.44;80.25;98573.69;5026490;28;20029;-72
2021/12/05 04:04:32;;;;;;;8.98;3.15;;;;;;;4.44;80.27;98573.69;5028585;28;20087;-72
2021/12/05 04:06:58;;;;;;;10.48;3.00;;;;;;;4.43;80.33;98570.28;5036703;28;20037;-73
2021/12/05 04:09:23;;;;;;;7.50;3.05;;;;;;;4.41;80.04;98571.31;5030004;28;20021;-72
2021/12/05 04:11:57;;;;;;;8.68;3.30;;;;;;;4.41;80.18;98584.28;5043936;28;20033;-72
2021/12/05 04:14:35;;;;;;;11.57;3.35;;;;;;;4.39;80.35;98589.59;5034408;28;20437;-73
2021/12/05 04:17:02;;;;;;;11.68;2.90;;;;;;;4.35;80.27;98576.00;5031382;28;20460;-72
2021/12/05 04:19:28;;;;;;;7.18;2.88;;;;;;;4.34;80.72;98579.53;5034934;28;20060;-71
2021/12/05 04:21:54;;;;;;;7.80;2.70;;;;;;;4.34;80.22;98586.50;5037477;28;20029;-71
2021/12/05 04:24:21;;;;;;;10.45;2.80;;;;;;;4.35;80.28;98588.16;5045646;28;20504;-71
2021/12/05 04:26:47;;;;;;;9.82;3.08;;;;;;;4.34;80.26;98582.16;5036369;28;20065;-71
2021/12/05 04:29:12;;;;;;;11.02;3.33;;;;;;;4.31;80.65;98582.34;5039931;28;20059;-71
2021/12/05 04:31:40;;;;;;;7.25;3.03;;;;;;;4.27;80.56;98575.72;5031658;28;20030;-71
2021/12/05 04:34:05;;;;;;;8.93;3.00;;;;;;;4.27;80.08;98582.66;5040361;28;20546;-72
2021/12/05 04:36:31;;;;;;;10.98;3.45;;;;;;;4.24;80.59;98586.28;5042662;28;20109;-71
2021/12/05 04:38:56;;;;;;;9.30;2.70;;;;;;;4.20;80.75;98590.03;5034820;28;20017;-72
2021/12/05 04:41:23;;;;;;;6.95;2.80;;;;;;;4.19;80.59;98585.78;5028637;28;20121;-72
2021/12/05 04:43:50;;;;;;;9.55;3.47;;;;;;;4.16;80.65;98587.75;5034698;28;20450;-71
2021/12/05 04:46:23;;;;;;;8.95;3.30;;;;;;;4.12;81.00;98582.78;5037675;28;20037;-71
2021/12/05 04:48:51;;;;;;;11.60;3.50;;;;;;;4.11;80.71;98588.88;5034332;28;20091;-71
2021/12/05 04:51:20;;;;;;;5.78;2.65;;;;;;;4.11;81.11;98583.69;5026544;28;20060;-70
2021/12/05 04:53:46;;;;;;;6.90;3.08;;;;;;;4.06;81.07;98578.00;5035216;28;20408;-72
2021/12/05 04:56:12;;;;;;;12.57;3.53;;;;;;;4.09;81.06;98580.38;5035670;28;20029;-72
2021/12/05 04:58:38;;;;;;;10.02;3.08;;;;;;;4.09;81.05;98601.13;5040932;28;20461;-71
2021/12/05 05:01:05;;;;;;;5.95;2.40;;;;;;;4.07;80.98;98587.44;5037605;28;20029;-71
2021/12/05 05:03:32;;;;;;;12.80;3.00;;;;;;;4.02;80.97;98581.72;5040070;28;20025;-71
2021/12/05 05:06:18;;;;;;;7.53;2.83;;;;;;;3.99;81.61;98588.88;5032037;28;20481;-71
2021/12/05 05:08:47;;;;;;;8.50;2.60;;;;;;;3.96;80.95;98594.28;5028702;28;20387;-71
2021/12/05 05:11:15;;;;;;;9.20;2.40;;;;;;;3.97;80.85;98590.75;5042352;28;20494;-71
2021/12/05 05:13:41;;;;;;;6.57;2.47;;;;;;;3.95;80.99;98590.03;5034487;28;20037;-72
2021/12/05 05:16:07;;;;;;;10.70;2.90;;;;;;;3.92;81.35;98588.47;5041876;28;20044;-72
2021/12/05 05:18:43;;;;;;;18.50;3.25;;;;;;;3.88;81.15;98590.44;5027597;28;20018;-71
2021/12/05 05:40:28;;;;;;;9.48;3.00;;;;;;;3.74;81.26;98615.59;5043498;28;20083;-68
2021/12/05 05:43:22;;;;;;;10.23;3.15;;;;;;;3.71;81.33;98627.03;5047508;28;20028;-69
2021/12/05 05:48:37;;;;;;;7.28;2.42;;;;;;;3.68;81.42;98639.34;5045261;28;20028;-69
2021/12/05 05:51:05;;;;;;;8.60;2.38;;;;;;;3.64;81.45;98642.16;5043714;28;20387;-68
2021/12/05 05:53:31;;;;;;;13.13;2.47;;;;;;;3.62;81.87;98643.16;5048380;28;20058;-69
2021/12/05 05:55:57;;;;;;;8.35;2.47;;;;;;;3.54;82.26;98643.66;5048580;28;20033;-68
2021/12/05 05:58:28;;;;;;;10.65;2.53;;;;;;;3.51;82.66;98654.22;5047181;28;20033;-70
2021/12/05 06:01:06;;;;;;;12.68;3.15;;;;;;;3.45;82.67;98646.00;5044248;28;20651;-69
2021/12/05 06:03:32;;;;;;;10.57;2.47;;;;;;;3.43;82.85;98648.72;5048033;28;20065;-69
2021/12/05 06:06:02;;;;;;;9.38;3.13;;;;;;;3.38;82.89;98661.97;5047196;28;20547;-68
2021/12/05 06:08:30;;;;;;;9.93;2.50;;;;;;;3.34;83.25;98665.69;5047167;28;20025;-68
2021/12/05 06:10:58;;;;;;;9.50;2.28;;;;;;;3.30;83.13;98677.16;5048411;28;20434;-67
2021/12/05 06:13:25;;;;;;;8.88;2.58;;;;;;;3.28;83.49;98670.41;5048210;28;20064;-68
2021/12/05 06:15:51;;;;;;;7.80;2.78;;;;;;;3.27;83.28;98679.13;5048324;28;20040;-68
2021/12/05 06:18:17;;;;;;;9.60;2.80;;;;;;;3.25;83.50;98675.78;5048477;28;20032;-68
2021/12/05 06:20:43;;;;;;;5.68;2.25;;;;;;;3.25;83.57;98688.72;5048184;28;20041;-66
2021/12/05 06:23:10;;;;;;;9.15;2.83;;;;;;;3.27;83.05;98687.72;5046524;28;20033;-68
2021/12/05 06:25:38;;;;;;;6.45;2.35;;;;;;;3.29;83.02;98692.78;5047246;28;20029;-67
2021/12/05 06:28:10;;;;;;;6.18;2.20;;;;;;;3.29;82.92;98693.59;5047691;28;20402;-67
2021/12/05 06:41:12;;;;;;;6.10;2.22;;;;;;;3.38;82.17;98715.53;5048119;28;20052;-68
2021/12/05 06:46:12;;;;;;;8.52;2.22;;;;;;;3.36;82.43;98700.06;5047972;28;20082;-68
2021/12/05 06:48:42;;;;;;;6.80;2.45;;;;;;;3.38;82.10;98708.59;5047666;28;20017;-71
2021/12/05 06:51:08;;;;;;;10.95;2.42;;;;;;;3.42;81.79;98719.59;5047495;28;20056;-67
2021/12/05 06:53:34;;;;;;;7.93;2.03;;;;;;;3.43;82.00;98718.66;5047816;28;20049;-68
2021/12/05 06:55:59;;;;;;;7.28;2.33;;;;;;;3.45;81.66;98718.53;5048364;28;20104;-67
2021/12/05 06:58:25;;;;;;;10.20;2.55;;;;;;;3.48;81.56;98720.94;5048251;28;20453;-68
2021/12/05 07:00:50;;;;;;;5.70;2.30;;;;;;;3.48;81.20;98719.19;5043150;28;20040;-66
2021/12/05 07:03:15;;;;;;;12.60;2.35;;;;;;;3.50;81.20;98729.47;5047924;28;20024;-69
2021/12/05 07:05:46;;;;;;;6.95;2.13;;;;;;;3.55;82.10;98741.19;5041728;28;20037;-69
2021/12/05 07:08:14;;;;;;;8.32;2.05;;;;;;;3.54;80.75;98744.72;5039776;28;20512;-69
2021/12/05 07:21:17;;;;;;;8.35;2.25;;;;;;;3.58;80.33;98772.09;5045221;28;20043;-68
2021/12/05 07:23:50;;;;;;;10.77;2.58;;;;;;;3.59;80.57;98773.75;5051915;28;20041;-70
2021/12/05 07:26:24;;;;;;;9.65;1.83;;;;;;;3.59;80.67;98778.94;5042513;28;20035;-68
2021/12/05 07:42:43;;;;;;;6.67;1.30;;;;;;;3.62;80.09;98809.84;5021010;28;20577;-67
2021/12/05 07:45:19;;;;;;;7.30;1.90;;;;;;;3.61;80.19;98813.38;5047568;28;20100;-68
2021/12/05 07:47:49;;;;;;;7.53;2.05;;;;;;;3.63;80.56;98814.13;5050940;28;20471;-69
2021/12/05 07:50:15;;;;;;;8.80;1.80;;;;;;;3.68;80.56;98819.03;5049136;28;20033;-69
2021/12/05 07:52:45;;;;;;;6.93;2.10;;;;;;;3.68;80.69;98829.38;5048201;28;20036;-68
2021/12/05 07:55:26;;;;;;;8.07;2.20;;;;;;;3.69;80.38;98833.63;5049120;28;20037;-70
2021/12/05 08:16:35;;;;;;;9.30;2.53;;;;;;;3.73;80.95;98834.28;5051210;28;20044;-70
2021/12/05 08:19:02;;;;;;;7.40;2.60;;;;;;;3.69;80.69;98831.03;5050707;28;20037;-70
2021/12/05 08:21:27;;;;;;;9.52;2.42;;;;;;;3.69;80.27;98838.00;5049848;28;20033;-66
2021/12/05 08:23:52;;;;;;;13.27;2.67;;;;;;;3.70;80.28;98842.22;5051094;28;20100;-68
2021/12/05 08:26:22;;;;;;;7.35;2.33;;;;;;;3.66;80.38;98840.75;5048246;28;20044;-69
2021/12/05 08:37:04;;;;;;;8.43;2.28;;;;;;;3.64;80.91;98856.41;5050369;28;20089;-69
2021/12/05 09:28:05;;;;;;;10.13;3.00;;;;;;;3.46;82.32;98937.88;5040142;28;20075;-69
2021/12/05 09:39:17;;;;;;;;;;;;;;;;;;;;;
2021/12/05 10:09:09;;;;;;;9.07;2.85;;;;;;;4.23;77.17;98957.38;5046988;28;20582;-68
2021/12/05 10:11:48;;;;;;;10.90;3.15;;;;;;;4.27;77.15;98958.84;5047615;28;20138;-68
2021/12/05 10:14:27;;;;;;;9.82;2.83;;;;;;;4.32;76.83;98961.97;5048499;28;20055;-69
2021/12/05 10:37:17;;;;;;;10.38;2.95;;;;;;;4.32;76.76;98952.41;5043107;28;20062;-66
2021/12/05 10:39:43;;;;;;;12.00;2.92;;;;;;;4.37;77.16;98952.13;5047686;28;20202;-69
2021/12/05 10:42:47;;;;;;;13.73;3.47;;;;;;;4.35;77.12;98948.81;5046357;28;20096;-69
2021/12/05 10:45:40;;;;;;;9.77;2.17;;;;;;;4.40;77.03;98946.75;5044219;28;20624;-69
2021/12/05 10:48:10;;;;;;;8.35;2.08;;;;;;;4.41;77.19;98948.41;5047822;28;20037;-69
2021/12/05 10:50:41;;;;;;;6.15;2.67;;;;;;;4.40;76.86;98956.28;5046639;28;20045;-68
2021/12/05 10:53:31;;;;;;;6.53;2.53;;;;;;;4.40;76.35;98949.34;5049903;28;20037;-69
2021/12/05 10:56:09;;;;;;;6.63;2.13;;;;;;;4.42;76.89;98950.09;5048220;28;20053;-67
2021/12/05 10:58:41;;;;;;;5.20;2.05;;;;;;;4.44;76.10;98950.81;5051104;28;20042;-69
2021/12/05 11:01:27;;;;;;;7.97;2.30;;;;;;;4.45;75.89;98941.25;5056793;28;20454;-68
2021/12/05 11:03:57;;;;;;;6.03;2.42;;;;;;;4.46;75.64;98942.94;5039163;28;20068;-69
2021/12/05 11:06:29;;;;;;;7.47;2.55;;;;;;;4.47;75.93;98939.41;5042366;28;20161;-68
2021/12/05 11:09:15;;;;;;;10.93;3.47;;;;;;;4.46;75.98;98941.19;5044528;28;20033;-71
2021/12/05 11:11:44;;;;;;;6.80;2.70;;;;;;;4.49;76.16;98940.16;5043121;28;20041;-68
2021/12/05 11:14:13;;;;;;;6.60;2.15;;;;;;;4.53;76.29;98932.06;5043429;28;20359;-65
2021/12/05 11:16:55;;;;;;;9.45;3.13;;;;;;;4.57;76.00;98938.72;5041969;28;20037;-68
2021/12/05 11:19:51;;;;;;;6.50;2.30;;;;;;;4.60;75.95;98942.91;5042545;28;20098;-69
2021/12/05 11:22:20;;;;;;;9.77;2.78;;;;;;;4.65;76.04;98945.19;5023932;28;20037;-69
2021/12/05 11:24:50;;;;;;;8.52;2.53;;;;;;;4.69;75.68;98936.28;5042153;28;20056;-68
2021/12/05 11:27:37;;;;;;;6.63;2.60;;;;;;;4.69;75.49;98944.06;5043600;28;20029;-64
2021/12/05 11:30:31;;;;;;;8.73;3.08;;;;;;;4.69;75.57;98937.09;5041607;28;20505;-60
2021/12/05 11:33:03;;;;;;;7.13;2.63;;;;;;;4.70;75.60;98940.53;5040291;28;20040;-63
2021/12/05 11:35:47;;;;;;;12.95;3.50;;;;;;;4.74;75.96;98940.22;5059819;22;20044;-70
2021/12/05 11:38:39;;;;;;;11.63;2.70;;;;;;;4.78;75.97;98941.72;5061128;28;20087;-72
2021/12/05 11:41:06;;;;;;;7.80;3.20;;;;;;;4.84;75.31;98940.47;5058443;28;20096;-71
2021/12/05 11:43:37;;;;;;;9.70;2.95;;;;;;;4.85;75.68;98942.13;5060545;28;20567;-69
2021/12/05 11:46:11;;;;;;;10.90;3.33;;;;;;;4.87;75.44;98942.03;5059144;28;20094;-71
2021/12/05 11:48:39;;;;;;;8.93;3.20;;;;;;;4.90;75.69;98945.28;5064335;28;20492;-68
2021/12/05 11:51:22;;;;;;;12.45;2.85;;;;;;;4.92;74.74;98948.59;5059489;28;20075;-69
2021/12/05 11:53:50;;;;;;;7.00;3.13;;;;;;;4.94;75.21;98954.53;5060952;28;20174;-71
2021/12/05 11:56:22;;;;;;;7.68;2.95;;;;;;;5.02;74.69;98954.03;5059287;28;20040;-72
2021/12/05 11:59:20;;;;;;;11.05;2.72;;;;;;;5.14;75.22;98955.81;5061560;28;20068;-71
2021/12/05 12:01:53;;;;;;;10.05;2.72;;;;;;;5.23;74.69;98942.22;5045326;28;20645;-70
2021/12/05 12:04:24;;;;;;;13.57;2.75;;;;;;;5.28;74.18;98950.53;5060645;28;20059;-73
2021/12/05 12:07:16;;;;;;;8.00;3.03;;;;;;;5.36;74.17;98952.59;5054294;28;20044;-74
2021/12/05 12:09:43;;;;;;;7.72;3.10;;;;;;;5.36;74.24;98954.38;5049678;28;20055;-75
2021/12/05 12:12:09;;;;;;;7.55;2.97;;;;;;;5.36;73.31;98960.41;5059980;28;20502;-72
2021/12/05 12:14:34;;;;;;;10.65;3.03;;;;;;;5.36;73.30;98949.19;5061233;28;20055;-73
2021/12/05 12:17:02;;;;;;;7.75;2.42;;;;;;;5.40;73.09;98945.44;5061015;28;20414;-74
2021/12/05 12:19:27;;;;;;;10.23;3.00;;;;;;;5.42;73.12;98948.78;5063425;28;20045;-72
2021/12/05 12:21:57;;;;;;;9.68;3.13;;;;;;;5.33;73.56;98952.81;5061121;28;20036;-73
2021/12/05 12:24:24;;;;;;;11.57;3.38;;;;;;;5.30;73.85;98961.66;5061128;28;20524;-73
2021/12/05 12:26:50;;;;;;;17.00;3.47;;;;;;;5.28;74.20;98953.13;5060773;28;20024;-72
2021/12/05 12:29:16;;;;;;;14.32;3.38;;;;;;;5.27;73.68;98955.84;5062159;28;20036;-72
2021/12/05 12:31:46;;;;;;;9.43;2.63;;;;;;;5.27;74.14;98954.06;5059173;28;20707;-72
2021/12/05 12:34:14;;;;;;;10.68;2.95;;;;;;;5.24;74.00;98962.06;5061460;28;20185;-73
2021/12/05 12:36:52;;;;;;;9.88;3.03;;;;;;;5.24;74.00;98964.66;5061137;28;20107;-72
2021/12/05 12:39:17;;;;;;;8.40;2.65;;;;;;;5.21;74.06;98966.63;5060554;28;20078;-71
2021/12/05 12:42:03;;;;;;;9.20;2.67;;;;;;;5.20;74.54;98960.59;5061286;28;20048;-74
2021/12/05 12:44:28;;;;;;;11.40;3.47;;;;;;;5.22;74.56;98958.72;5054763;28;20480;-75
2021/12/05 12:47:01;;;;;;;7.85;2.72;;;;;;;5.27;74.40;98959.25;5060985;28;20031;-74
2021/12/05 12:49:33;;;;;;;8.82;2.75;;;;;;;5.27;74.29;98951.47;5069580;28;20037;-72
2021/12/05 12:52:11;;;;;;;12.13;3.28;;;;;;;5.33;74.51;98961.44;5062698;28;20063;-71
2021/12/05 12:54:55;;;;;;;12.43;3.13;;;;;;;5.40;74.41;98959.25;5062422;28;21142;-72
2021/12/05 12:57:31;;;;;;;11.35;3.40;;;;;;;5.47;74.07;98970.09;5071963;28;20024;-73
2021/12/05 13:00:15;;;;;;;8.13;2.38;;;;;;;5.55;73.82;98970.41;5066028;28;20123;-73
2021/12/05 13:10:50;;;;;;;10.55;2.33;;;;;;;5.68;73.05;98986.03;5065718;28;20047;-73
2021/12/05 13:13:18;;;;;;;11.80;3.17;;;;;;;5.76;72.44;98991.53;5069149;28;20032;-72
2021/12/05 13:15:53;;;;;;;11.05;2.10;;;;;;;5.86;72.00;98986.50;5062190;28;20052;-73
2021/12/05 13:18:26;;;;;;;12.13;2.40;;;;;;;5.90;72.00;98990.59;5062436;28;20062;-73
2021/12/05 13:20:56;;;;;;;10.52;2.55;;;;;;;5.90;72.14;98991.41;5065374;28;20056;-74
2021/12/05 13:23:31;;;;;;;10.48;2.40;;;;;;;5.77;71.60;98995.78;5067099;28;20037;-73
2021/12/05 13:26:01;;;;;;;10.80;2.50;;;;;;;5.64;72.61;98997.56;5068381;28;20047;-73
2021/12/05 13:28:36;;;;;;;11.80;3.22;;;;;;;5.56;72.80;99005.84;5068050;28;20025;-73
2021/12/05 13:31:27;;;;;;;10.90;2.63;;;;;;;5.44;73.77;99004.06;5059093;28;20036;-70
2021/12/05 13:34:33;;;;;;;13.00;2.50;;;;;;;5.34;74.07;99009.06;5056687;28;20121;-73
2021/12/05 13:37:18;;;;;;;16.27;3.53;;;;;;;5.32;74.49;99023.91;4999577;28;20041;-73
2021/12/05 13:39:47;;;;;;;11.70;3.08;;;;;;;5.29;74.39;99018.91;5064267;28;20139;-72
2021/12/05 13:42:22;;;;;;;10.57;2.30;;;;;;;5.28;74.47;99017.25;5060084;28;20033;-73
2021/12/05 13:45:00;;;;;;;9.00;3.35;;;;;;;5.28;74.92;99018.09;5060925;28;20114;-70
2021/12/05 13:47:31;;;;;;;14.27;3.60;;;;;;;5.27;75.61;99020.81;5065148;28;20036;-70
2021/12/05 13:50:29;;;;;;;10.07;4.10;;;;;;;5.26;75.99;99021.72;5063063;28;20654;-70
2021/12/05 13:53:07;;;;;;;12.03;4.13;;;;;;;5.26;76.83;99025.16;5048942;28;20032;-71
2021/12/05 13:55:54;;;;;;;19.55;4.60;;;;;;;5.29;76.71;99024.94;5058192;28;20285;-70
2021/12/05 13:58:28;;;;;;;31.60;14.30;;;;;;;5.34;76.54;99029.88;5061881;28;20045;-70
2021/12/05 14:01:18;;;;;;;46.63;24.38;;;;;;;5.39;76.37;99035.59;5061086;28;20029;-72
2021/12/05 14:03:58;;;;;;;41.25;21.70;;;;;;;5.45;76.39;99036.94;5064841;28;20045;-70
2021/12/05 14:06:43;;;;;;;20.48;9.10;;;;;;;5.49;76.18;99031.44;5064798;28;20065;-70
2021/12/05 14:09:27;;;;;;;21.98;8.02;;;;;;;5.61;76.01;99037.59;5074316;28;20016;-69
2021/12/05 14:11:54;;;;;;;17.17;6.72;;;;;;;5.75;75.67;99034.09;5066614;28;20060;-72
2021/12/05 14:14:24;;;;;;;9.15;4.10;;;;;;;5.93;74.78;99032.00;5066801;28;20457;-69
2021/12/05 14:16:51;;;;;;;11.55;4.57;;;;;;;6.14;73.76;99033.16;5061576;28;20413;-71
2021/12/05 14:19:20;;;;;;;15.32;5.80;;;;;;;6.28;72.66;99030.44;5060723;28;20099;-71
2021/12/05 14:21:49;;;;;;;14.10;4.63;;;;;;;6.28;72.77;99029.59;5064247;28;20455;-71
2021/12/05 14:24:15;;;;;;;;;;;;;;;6.35;71.94;99038.66;5063527;28;20074;-70
2021/12/05 14:26:41;;;;;;;13.70;4.68;;;;;;;6.44;72.11;99045.81;5070232;28;20446;-75
2021/12/05 14:29:19;;;;;;;10.93;2.70;;;;;;;6.25;70.97;99050.63;5070571;28;20040;-72
2021/12/05 14:32:12;;;;;;;14.65;3.80;;;;;;;6.02;71.87;99049.59;5060406;28;20041;-73
2021/12/05 14:34:39;;;;;;;13.98;4.72;;;;;;;5.86;72.54;99060.19;5057471;28;20033;-70
2021/12/05 14:37:19;;;;;;;10.82;2.75;;;;;;;5.73;73.00;99069.75;5066556;28;20047;-71
2021/12/05 14:40:18;;;;;;;15.38;4.57;;;;;;;5.56;73.55;99084.72;5061012;28;20041;-71
2021/12/05 14:42:46;;;;;;;9.82;4.05;;;;;;;5.44;74.33;99082.06;5066198;28;20052;-71
2021/12/05 14:45:14;;;;;;;13.10;4.85;;;;;;;5.39;74.94;99084.97;5065664;28;20021;-73
2021/12/05 14:47:41;;;;;;;13.18;4.90;;;;;;;5.31;74.92;99087.25;5063224;28;20040;-70
2021/12/05 14:50:30;;;;;;;12.07;4.30;;;;;;;5.26;75.25;99094.47;5063652;28;20044;-71
2021/12/05 14:53:00;;;;;;;12.20;3.05;;;;;;;5.19;76.06;99099.25;5070260;28;20044;-72
2021/12/05 14:55:29;;;;;;;12.73;4.22;;;;;;;5.14;76.25;99105.66;5066452;28;20587;-70
2021/12/05 14:57:58;;;;;;;14.30;5.47;;;;;;;5.09;76.40;99103.38;5065256;28;20033;-74
2021/12/05 15:00:28;;;;;;;14.93;6.15;;;;;;;5.08;76.30;99112.94;5068589;28;20024;-70
2021/12/05 15:03:05;;;;;;;11.70;3.20;;;;;;;5.10;76.60;99118.00;5064528;28;20113;-74
2021/12/05 15:05:32;;;;;;;11.73;3.67;;;;;;;5.09;76.64;99116.34;5068063;28;20032;-72
2021/12/05 15:08:04;;;;;;;11.00;2.90;;;;;;;5.09;76.80;99124.16;5065383;28;20653;-72
2021/12/05 15:10:30;;;;;;;11.30;3.13;;;;;;;5.09;76.57;99130.19;5068348;28;20025;-72
2021/12/05 15:12:55;;;;;;;14.77;4.05;;;;;;;5.12;76.68;99125.69;5071465;28;20024;-72
2021/12/05 15:15:23;;;;;;;17.83;5.20;;;;;;;5.14;76.24;99132.47;5070616;28;20466;-72
2021/12/05 15:17:49;;;;;;;16.70;3.57;;;;;;;5.14;76.85;99137.69;5065987;28;20094;-72
2021/12/05 15:20:18;;;;;;;26.23;7.40;;;;;;;5.13;76.30;99140.38;5063344;28;20033;-74
2021/12/05 15:22:49;;;;;;;18.23;7.57;;;;;;;5.10;76.85;99138.81;5069937;28;20035;-74
2021/12/05 15:25:18;;;;;;;18.10;6.00;;;;;;;5.10;77.03;99137.03;5071861;28;20453;-73
2021/12/05 15:27:44;;;;;;;20.30;4.82;;;;;;;5.10;76.67;99139.63;5065336;28;20043;-72
2021/12/05 15:30:14;;;;;;;11.50;3.70;;;;;;;5.11;76.91;99135.25;5066244;28;20029;-70
2021/12/05 15:32:40;;;;;;;13.20;5.20;;;;;;;5.12;77.00;99139.56;5064472;28;20040;-73
2021/12/05 15:35:09;;;;;;;17.50;5.80;;;;;;;5.09;76.72;99140.56;5057368;28;20043;-71
2021/12/05 15:37:35;;;;;;;14.65;5.10;;;;;;;5.07;76.46;99142.41;5064257;28;20161;-74
2021/12/05 15:40:03;;;;;;;15.50;4.03;;;;;;;5.05;76.94;99149.50;5063433;28;20135;-78
2021/12/05 15:42:34;;;;;;;14.93;4.13;;;;;;;5.04;77.24;99146.97;5062203;28;20885;-73
2021/12/05 15:45:07;;;;;;;10.57;3.72;;;;;;;5.03;77.17;99147.91;5063822;28;20074;-72
2021/12/05 15:47:34;;;;;;;14.35;4.13;;;;;;;5.00;77.29;99142.91;5062455;28;20131;-72
2021/12/05 15:50:12;;;;;;;15.35;4.10;;;;;;;4.98;77.96;99153.41;5062958;28;20201;-73
2021/12/05 15:52:54;;;;;;;10.70;3.88;;;;;;;4.96;78.20;99149.22;5063607;28;20047;-75
2021/12/05 15:55:34;;;;;;;13.25;4.75;;;;;;;4.93;78.44;99155.47;5061818;28;20044;-74
2021/12/05 15:58:07;;;;;;;21.10;6.85;;;;;;;4.89;78.99;99159.16;5062502;28;20056;-74
2021/12/05 16:00:42;;;;;;;16.90;8.07;;;;;;;4.86;79.13;99161.97;5061237;28;20060;-70
2021/12/05 16:03:20;;;;;;;19.25;6.88;;;;;;;4.86;79.74;99156.75;5059422;28;20038;-72
2021/12/05 16:05:52;;;;;;;12.82;4.95;;;;;;;4.84;80.04;99156.84;5061557;28;20084;-72
2021/12/05 16:08:17;;;;;;;19.70;5.68;;;;;;;4.87;79.74;99175.78;5062734;28;20033;-74
2021/12/05 16:10:48;;;;;;;15.68;4.97;;;;;;;4.88;80.13;99175.66;5062619;28;20067;-76
2021/12/05 16:13:17;;;;;;;16.50;5.70;;;;;;;4.88;80.15;99170.47;5061131;28;20040;-72
2021/12/05 16:15:45;;;;;;;19.05;6.63;;;;;;;4.93;80.11;99170.19;5062635;28;20040;-73
2021/12/05 16:18:11;;;;;;;13.07;5.70;;;;;;;4.93;80.13;99177.97;5062635;28;20052;-72
2021/12/05 16:20:47;;;;;;;13.30;5.40;;;;;;;4.93;79.84;99178.84;5061798;28;20121;-73
2021/12/05 16:23:17;;;;;;;23.67;6.72;;;;;;;4.92;80.25;99177.16;5061488;28;20742;-72
2021/12/05 16:25:59;;;;;;;22.20;8.38;;;;;;;4.94;80.15;99177.06;5061564;28;20047;-73
2021/12/05 16:28:29;;;;;;;18.23;7.05;;;;;;;4.94;80.26;99179.66;5063185;28;20535;-72
2021/12/05 16:31:12;;;;;;;21.75;9.00;;;;;;;4.93;79.97;99181.44;5062192;28;20056;-71
2021/12/05 16:33:37;;;;;;;22.48;9.00;;;;;;;4.93;80.32;99175.38;5065293;28;20111;-71
2021/12/05 16:36:05;;;;;;;18.15;7.68;;;;;;;4.92;79.63;99176.31;5064790;28;20043;-73
2021/12/05 16:38:37;;;;;;;24.77;8.20;;;;;;;4.88;79.90;99178.25;5069015;28;20041;-73
2021/12/05 16:41:17;;;;;;;23.42;9.25;;;;;;;4.87;80.09;99184.41;5063552;28;20045;-73
2021/12/05 16:43:49;;;;;;;27.98;10.10;;;;;;;4.85;80.83;99184.47;5061940;28;20040;-73
2021/12/05 16:46:29;;;;;;;27.63;9.77;;;;;;;4.81;81.17;99179.56;5071140;28;20033;-73
2021/12/05 16:48:58;;;;;;;26.40;9.65;;;;;;;4.80;81.22;99177.91;5072403;28;20098;-73
2021/12/05 16:51:54;;;;;;;17.25;6.30;;;;;;;4.74;79.56;99180.88;5069664;28;20024;-72
2021/12/05 16:54:25;;;;;;;15.35;7.07;;;;;;;4.71;79.32;99175.84;5063311;28;20047;-72
2021/12/05 16:56:57;;;;;;;13.90;5.30;;;;;;;4.71;78.89;99179.31;5070661;28;20046;-73
2021/12/05 16:59:44;;;;;;;10.35;4.32;;;;;;;4.69;78.94;99185.50;5055184;28;20540;-73
2021/12/05 17:02:31;;;;;;;13.85;3.97;;;;;;;4.69;77.39;99185.50;5060989;28;20049;-72
2021/12/05 17:05:05;;;;;;;14.30;4.47;;;;;;;4.68;77.22;99189.88;5068616;28;20039;-72
2021/12/05 17:07:37;;;;;;;11.10;3.40;;;;;;;4.67;77.22;99193.38;5063254;28;20123;-71
2021/12/05 17:10:29;;;;;;;16.63;5.28;;;;;;;4.69;78.53;99198.50;5067819;28;20464;-73
2021/12/05 17:13:18;;;;;;;17.83;5.53;;;;;;;4.87;80.19;99193.94;5060509;28;20037;-73
2021/12/05 17:15:55;;;;;;;15.27;3.70;;;;;;;4.85;77.83;99202.66;5063881;28;20075;-72
2021/12/05 17:18:38;;;;;;;14.50;4.03;;;;;;;5.06;77.10;99205.72;5064839;28;20045;-73